Time;durP1;ratioP1;P1;durP2;ratioP2;P2;SDS_P1;SDS_P2;PMS_P1;PMS_P2;Temp;Humidity;BMP_temperature;BMP_pressure;BME280_temperature;BME280_humidity;BME280_pressure;Samples;Min_cycle;Max_cycle;Signal;HPM_P1;HPM_P2
2021/12/22 00:01:26;;;;;;;13.03;6.40;;;-2.60;99.90;;;;;;4998714;28;20045;-85
2021/12/22 00:03:53;;;;;;;17.23;6.17;;;-2.70;99.90;;;;;;5012606;28;20009;-86
2021/12/22 00:06:21;;;;;;;11.20;5.77;;;-2.60;99.90;;;;;;4998636;28;20026;-85
2021/12/22 00:08:48;;;;;;;12.53;6.30;;;-2.70;99.90;;;;;;5011919;28;20014;-86
2021/12/22 00:11:14;;;;;;;12.43;6.20;;;-2.70;99.90;;;;;;4998101;28;20488;-85
2021/12/22 00:13:39;;;;;;;19.13;5.90;;;-2.70;99.90;;;;;;4989517;28;20041;-86
2021/12/22 00:16:06;;;;;;;16.60;6.10;;;-2.70;99.90;;;;;;4988028;28;20030;-86
2021/12/22 00:18:32;;;;;;;10.30;5.53;;;-2.70;99.90;;;;;;4979206;28;20026;-85
2021/12/22 00:20:58;;;;;;;15.80;6.30;;;-2.80;99.90;;;;;;4978797;28;20036;-85
2021/12/22 00:23:23;;;;;;;10.67;5.47;;;-2.80;99.90;;;;;;4978485;28;20119;-86
2021/12/22 00:31:18;;;;;;;14.00;6.20;;;-2.80;99.90;;;;;;5008996;28;20057;-86
2021/12/22 00:33:55;;;;;;;13.83;5.93;;;-2.80;99.90;;;;;;5005501;28;20034;-87
2021/12/22 00:36:27;;;;;;;13.70;6.33;;;-2.80;99.90;;;;;;4984399;28;20062;-86
2021/12/22 00:38:59;;;;;;;16.63;6.55;;;-2.80;99.90;;;;;;4966194;28;20097;-86
2021/12/22 00:41:40;;;;;;;18.77;6.75;;;-2.90;99.90;;;;;;4968242;28;20118;-86
2021/12/22 00:44:13;;;;;;;14.90;6.20;;;-2.80;99.90;;;;;;4966445;28;20035;-87
2021/12/22 00:47:10;;;;;;;14.43;6.93;;;-2.90;99.90;;;;;;4968703;28;20050;-86
2021/12/22 00:49:56;;;;;;;10.53;6.30;;;-2.90;99.90;;;;;;4972357;28;20031;-86
2021/12/22 00:52:29;;;;;;;14.97;6.23;;;-2.80;99.90;;;;;;4981704;28;20496;-86
2021/12/22 00:55:20;;;;;;;;;;;;;;;;;;;;;
2021/12/22 00:58:00;;;;;;;11.57;5.90;;;-2.90;99.90;;;;;;5008396;28;20050;-86
2021/12/22 01:00:35;;;;;;;15.27;6.07;;;-2.90;99.90;;;;;;4987079;28;20039;-86
2021/12/22 01:03:07;;;;;;;13.80;5.93;;;-3.00;99.90;;;;;;4971545;28;20038;-86
2021/12/22 01:05:59;;;;;;;13.05;6.10;;;-2.90;99.90;;;;;;4969292;28;20031;-86
2021/12/22 01:08:28;;;;;;;12.48;6.30;;;-2.90;99.90;;;;;;4979832;28;20050;-85
2021/12/22 01:10:57;;;;;;;15.10;6.00;;;-2.90;99.90;;;;;;4987336;28;20023;-85
2021/12/22 01:13:39;;;;;;;11.53;5.50;;;-3.00;99.90;;;;;;4976382;28;20030;-86
2021/12/22 01:16:19;;;;;;;12.75;5.80;;;-3.00;99.90;;;;;;4988355;28;20026;-86
2021/12/22 01:18:52;;;;;;;13.53;5.70;;;-3.00;99.90;;;;;;4968128;28;20039;-86
2021/12/22 01:21:28;;;;;;;13.50;5.70;;;-3.00;99.90;;;;;;4971192;28;20031;-86
2021/12/22 01:27:05;;;;;;;14.83;6.47;;;-3.00;99.90;;;;;;4989578;28;20027;-86
2021/12/22 01:30:19;;;;;;;14.50;5.60;;;-2.90;99.90;;;;;;4981247;28;20030;-85
2021/12/22 01:33:02;;;;;;;17.00;7.23;;;-3.00;99.90;;;;;;4992723;28;20031;-86
2021/12/22 01:36:06;;;;;;;;;;;;;;;;;;;;;
2021/12/22 01:38:48;;;;;;;13.10;5.93;;;-3.10;99.90;;;;;;4982040;28;20034;-87
2021/12/22 01:41:39;;;;;;;16.05;5.80;;;-3.10;99.90;;;;;;4955500;28;20070;-86
2021/12/22 01:44:08;;;;;;;11.47;5.60;;;-3.10;99.90;;;;;;4972330;28;20058;-86
2021/12/22 01:50:11;;;;;;;11.68;5.80;;;-3.20;99.90;;;;;;5029515;28;20057;-85
2021/12/22 01:53:06;;;;;;;13.90;6.37;;;-3.10;99.90;;;;;;5020326;28;20049;-86
2021/12/22 01:56:05;;;;;;;17.87;5.93;;;-3.20;99.90;;;;;;4989010;28;20026;-85
2021/12/22 01:58:44;;;;;;;10.63;5.83;;;-3.10;99.90;;;;;;4968368;28;20027;-86
2021/12/22 02:01:24;;;;;;;13.80;5.70;;;-3.10;99.90;;;;;;4964786;28;20037;-86
2021/12/22 02:03:59;;;;;;;13.63;6.00;;;-3.10;99.90;;;;;;4984657;28;20519;-87
2021/12/22 02:06:31;;;;;;;17.80;6.43;;;-3.20;99.90;;;;;;4985012;28;20027;-86
2021/12/22 02:09:08;;;;;;;15.88;6.65;;;-3.10;99.90;;;;;;4985584;28;20029;-86
2021/12/22 02:11:47;;;;;;;12.77;6.47;;;-3.20;99.90;;;;;;4979232;28;20034;-86
2021/12/22 02:14:57;;;;;;;13.43;6.43;;;-3.10;99.90;;;;;;5003829;28;20101;-86
2021/12/22 02:17:58;;;;;;;16.13;6.40;;;-3.20;99.90;;;;;;4991862;28;20054;-86
2021/12/22 02:20:42;;;;;;;21.43;7.27;;;-3.20;99.90;;;;;;4989461;28;20062;-87
2021/12/22 02:23:31;;;;;;;12.93;5.17;;;-3.20;99.90;;;;;;4988086;28;20049;-86
2021/12/22 02:26:52;;;;;;;15.07;6.33;;;-3.20;99.90;;;;;;4987012;28;20039;-87
2021/12/22 02:29:19;;;;;;;12.33;5.83;;;-3.30;99.90;;;;;;4994289;28;20030;-86
2021/12/22 02:32:46;;;;;;;14.55;6.63;;;-3.20;99.90;;;;;;4989162;28;20580;-86
2021/12/22 02:35:51;;;;;;;;;;;;;;;;;;;;;
2021/12/22 02:38:30;;;;;;;11.80;5.47;;;-3.30;99.90;;;;;;5007098;28;20117;-86
2021/12/22 02:41:28;;;;;;;11.90;5.40;;;-3.30;99.90;;;;;;4989095;28;20122;-86
2021/12/22 02:43:59;;;;;;;12.50;6.23;;;-3.30;99.90;;;;;;4973258;28;20062;-87
2021/12/22 02:46:47;;;;;;;13.85;6.70;;;-3.30;99.90;;;;;;4969670;28;20105;-86
2021/12/22 02:49:28;;;;;;;13.63;6.20;;;-3.30;99.90;;;;;;4986317;28;20027;-86
2021/12/22 02:51:59;;;;;;;15.40;6.30;;;-3.30;99.90;;;;;;4985868;28;20050;-87
2021/12/22 02:54:41;;;;;;;15.23;7.40;;;-3.30;99.90;;;;;;4986761;28;20691;-86
2021/12/22 03:06:35;;;;;;;16.52;6.47;;;-3.30;99.90;;;;;;5004884;28;20025;-86
2021/12/22 03:09:31;;;;;;;16.37;6.40;;;-3.30;99.90;;;;;;5005548;28;20026;-86
2021/12/22 03:12:23;;;;;;;13.03;5.77;;;-3.40;99.90;;;;;;4987636;28;20030;-86
2021/12/22 03:14:55;;;;;;;15.27;5.55;;;-3.40;99.90;;;;;;4970807;28;20049;-86
2021/12/22 03:17:33;;;;;;;14.05;5.65;;;-3.40;99.90;;;;;;4987931;28;20077;-86
2021/12/22 03:20:02;;;;;;;12.87;5.90;;;-3.50;99.90;;;;;;4987930;28;20049;-86
2021/12/22 03:22:42;;;;;;;14.17;6.07;;;-3.50;99.90;;;;;;4988029;28;20068;-86
2021/12/22 03:25:39;;;;;;;12.10;6.13;;;-3.40;99.90;;;;;;5005544;28;20086;-86
2021/12/22 03:28:10;;;;;;;15.97;5.83;;;-3.40;99.90;;;;;;4983942;28;20046;-85
2021/12/22 03:30:38;;;;;;;13.97;6.33;;;-3.50;99.90;;;;;;4990874;28;20027;-86
2021/12/22 03:33:19;;;;;;;;;;;;;;;;;;;;;
2021/12/22 03:36:03;;;;;;;13.97;5.70;;;-3.50;99.90;;;;;;4990189;28;20065;-85
2021/12/22 03:38:31;;;;;;;13.63;5.63;;;-3.40;99.90;;;;;;4967855;28;20042;-85
2021/12/22 03:40:57;;;;;;;16.33;6.87;;;-3.50;99.90;;;;;;4984852;28;20090;-85
2021/12/22 03:43:29;;;;;;;17.00;6.83;;;-3.60;99.90;;;;;;4986493;28;20026;-86
2021/12/22 03:48:46;;;;;;;14.53;6.10;;;-3.60;99.90;;;;;;4988379;28;20428;-87
2021/12/22 03:51:15;;;;;;;14.10;5.83;;;-3.60;99.90;;;;;;4975175;28;20031;-87
2021/12/22 03:53:46;;;;;;;16.20;7.03;;;-3.60;99.90;;;;;;4994037;28;20074;-87
2021/12/22 03:56:21;;;;;;;14.37;6.73;;;-3.50;99.90;;;;;;4977649;28;20023;-86
2021/12/22 03:58:53;;;;;;;12.30;5.83;;;-3.50;99.90;;;;;;4995493;28;20078;-86
2021/12/22 04:01:32;;;;;;;16.07;6.27;;;-3.60;99.90;;;;;;4993607;28;20018;-85
2021/12/22 04:04:13;;;;;;;13.73;6.97;;;-3.60;99.90;;;;;;4994538;28;20035;-86
2021/12/22 04:06:41;;;;;;;16.43;6.33;;;-3.60;99.90;;;;;;4987980;28;20023;-85
2021/12/22 04:09:26;;;;;;;14.87;7.13;;;-3.60;99.90;;;;;;4978193;28;20030;-86
2021/12/22 04:11:53;;;;;;;14.87;6.33;;;-3.50;99.90;;;;;;4985766;28;20022;-85
2021/12/22 04:14:19;;;;;;;24.10;7.73;;;-3.70;99.90;;;;;;4983347;28;20037;-85
2021/12/22 04:16:45;;;;;;;11.33;5.60;;;-3.70;99.90;;;;;;4985557;28;20026;-85
2021/12/22 04:19:46;;;;;;;13.00;6.57;;;-3.70;99.90;;;;;;4983837;28;20129;-87
2021/12/22 04:22:15;;;;;;;12.67;6.03;;;-3.70;99.90;;;;;;4905399;29;20121;-85
2021/12/22 04:24:48;;;;;;;15.10;6.40;;;-3.70;99.90;;;;;;4959528;28;20046;-86
2021/12/22 04:27:19;;;;;;;14.10;6.60;;;-3.70;99.90;;;;;;4984037;28;20034;-86
2021/12/22 04:29:51;;;;;;;17.27;7.10;;;-3.70;99.90;;;;;;4983853;28;20033;-86
2021/12/22 04:32:19;;;;;;;14.67;7.50;;;-3.70;99.90;;;;;;4983872;28;20112;-85
2021/12/22 04:34:47;;;;;;;14.17;6.67;;;-3.70;99.90;;;;;;4979733;28;20118;-85
2021/12/22 04:37:16;;;;;;;18.90;7.13;;;-3.70;99.90;;;;;;4980751;28;20018;-86
2021/12/22 04:39:50;;;;;;;12.97;5.87;;;-3.80;99.90;;;;;;4981890;28;20027;-86
2021/12/22 04:42:19;;;;;;;15.93;7.07;;;-3.70;99.90;;;;;;4983101;28;20124;-86
2021/12/22 04:44:50;;;;;;;13.40;6.10;;;-3.70;99.90;;;;;;4981969;28;20092;-85
2021/12/22 04:47:19;;;;;;;17.53;6.60;;;-3.80;99.90;;;;;;4981510;28;20065;-86
2021/12/22 04:49:45;;;;;;;19.07;6.50;;;-3.80;99.90;;;;;;4981040;28;20049;-86
2021/12/22 04:52:17;;;;;;;18.43;6.33;;;-3.80;99.90;;;;;;4981241;28;20031;-86
2021/12/22 04:55:03;;;;;;;15.55;6.10;;;-3.90;99.90;;;;;;4981879;28;20054;-85
2021/12/22 04:57:33;;;;;;;14.57;6.97;;;;;;;;;;4977877;28;20039;-86
2021/12/22 05:00:10;;;;;;;12.70;5.83;;;-3.90;99.90;;;;;;4963709;28;20441;-86
2021/12/22 05:02:42;;;;;;;16.97;6.57;;;-3.90;99.90;;;;;;4980115;28;20027;-87
2021/12/22 05:05:14;;;;;;;13.73;6.25;;;-3.80;99.90;;;;;;4960982;28;20030;-87
2021/12/22 05:07:43;;;;;;;11.90;4.97;;;-3.80;99.90;;;;;;4960775;28;20058;-86
2021/12/22 05:10:17;;;;;;;15.07;5.87;;;-3.80;99.90;;;;;;4977377;28;20014;-87
2021/12/22 05:12:47;;;;;;;14.60;6.47;;;-3.80;99.90;;;;;;4979666;28;20027;-87
2021/12/22 05:15:22;;;;;;;18.23;7.13;;;-3.80;99.90;;;;;;4995932;28;20026;-87
2021/12/22 05:18:13;;;;;;;15.80;6.27;;;-3.80;99.90;;;;;;4978848;28;20366;-86
2021/12/22 05:20:39;;;;;;;17.90;6.03;;;-3.80;99.90;;;;;;4978678;28;20031;-87
2021/12/22 05:23:05;;;;;;;15.83;6.27;;;-3.90;99.90;;;;;;4983384;28;20054;-87
2021/12/22 05:25:34;;;;;;;13.07;5.80;;;-3.80;99.90;;;;;;4992113;28;20026;-87
2021/12/22 05:28:03;;;;;;;15.20;6.47;;;-3.90;99.90;;;;;;4981111;28;20436;-86
2021/12/22 05:30:36;;;;;;;13.07;6.47;;;-3.90;99.90;;;;;;4998246;28;20057;-86
2021/12/22 05:33:02;;;;;;;12.60;5.87;;;-3.80;99.90;;;;;;5000482;28;20527;-87
2021/12/22 05:35:28;;;;;;;16.30;6.83;;;-3.90;99.90;;;;;;5001812;28;20030;-86
2021/12/22 05:37:53;;;;;;;17.80;5.53;;;-3.90;99.90;;;;;;4984860;28;20030;-86
2021/12/22 05:40:27;;;;;;;17.87;6.90;;;-3.90;99.90;;;;;;4983963;28;20026;-87
2021/12/22 05:42:52;;;;;;;17.17;6.13;;;-3.90;99.90;;;;;;4980297;28;20117;-86
2021/12/22 05:45:20;;;;;;;15.23;6.47;;;-3.90;99.90;;;;;;4986306;28;20053;-86
2021/12/22 05:47:52;;;;;;;18.73;6.23;;;-3.90;99.90;;;;;;4981559;28;20039;-86
2021/12/22 05:50:20;;;;;;;20.58;6.28;;;-4.00;99.90;;;;;;4966983;28;20027;-87
2021/12/22 05:52:51;;;;;;;11.27;5.60;;;-4.00;99.90;;;;;;4984427;28;20023;-86
2021/12/22 05:55:33;;;;;;;12.98;4.25;;;-4.00;99.90;;;;;;4970598;28;20037;-85
2021/12/22 05:58:08;;;;;;;17.00;6.03;;;-4.00;99.90;;;;;;4985081;28;20035;-86
2021/12/22 06:00:39;;;;;;;12.27;6.47;;;-4.00;99.90;;;;;;4978095;28;20041;-86
2021/12/22 06:03:05;;;;;;;11.70;6.18;;;-4.00;99.90;;;;;;5002203;28;20022;-86
2021/12/22 06:05:31;;;;;;;13.03;6.90;;;-4.00;99.90;;;;;;4998158;28;20423;-85
2021/12/22 06:07:56;;;;;;;16.97;5.90;;;-4.00;99.90;;;;;;4980965;28;20551;-85
2021/12/22 06:10:22;;;;;;;15.33;6.97;;;-4.00;99.90;;;;;;4979299;28;20026;-86
2021/12/22 06:12:48;;;;;;;12.43;6.10;;;-4.10;99.90;;;;;;4997349;28;20090;-86
2021/12/22 06:15:51;;;;;;;14.13;7.17;;;-4.00;99.90;;;;;;4980334;28;20094;-85
2021/12/22 06:18:17;;;;;;;14.60;5.37;;;-4.00;99.90;;;;;;5002705;28;20018;-86
2021/12/22 06:20:43;;;;;;;18.50;6.97;;;-4.10;99.90;;;;;;4982051;28;20150;-85
2021/12/22 06:23:14;;;;;;;13.10;6.43;;;-4.10;99.90;;;;;;5001938;28;20041;-86
2021/12/22 06:25:45;;;;;;;15.23;5.60;;;-4.10;99.90;;;;;;4986332;28;20026;-87
2021/12/22 06:28:17;;;;;;;12.57;6.15;;;-4.10;99.90;;;;;;5005747;28;20023;-86
2021/12/22 06:30:43;;;;;;;15.98;6.60;;;-4.10;99.90;;;;;;5044812;22;20057;-83
2021/12/22 06:33:09;;;;;;;16.80;6.60;;;-4.10;99.90;;;;;;5015544;28;20034;-85
2021/12/22 06:35:34;;;;;;;19.97;7.13;;;-4.10;99.90;;;;;;5022171;28;20033;-84
2021/12/22 06:38:00;;;;;;;12.87;6.10;;;-4.10;99.90;;;;;;5010183;28;20042;-84
2021/12/22 06:40:25;;;;;;;11.00;5.93;;;-4.20;99.90;;;;;;5021200;28;20034;-83
2021/12/22 06:42:51;;;;;;;19.50;8.00;;;-4.20;99.90;;;;;;5005806;28;20053;-83
2021/12/22 06:45:17;;;;;;;16.17;6.90;;;-4.20;99.90;;;;;;5009668;28;20097;-84
2021/12/22 06:47:42;;;;;;;20.60;6.57;;;-4.20;99.90;;;;;;5017515;28;20045;-82
2021/12/22 06:50:09;;;;;;;17.93;6.97;;;-4.20;99.90;;;;;;5020062;28;20064;-84
2021/12/22 06:52:35;;;;;;;15.03;7.30;;;-4.20;99.90;;;;;;4996867;28;20073;-84
2021/12/22 06:55:01;;;;;;;18.23;7.37;;;-4.20;99.90;;;;;;4995903;28;20034;-84
2021/12/22 06:57:29;;;;;;;13.27;6.07;;;-4.10;99.90;;;;;;5012057;28;20026;-83
2021/12/22 06:59:56;;;;;;;13.87;5.77;;;-4.20;99.90;;;;;;4999581;28;20049;-83
2021/12/22 07:02:24;;;;;;;18.73;6.90;;;-4.10;99.90;;;;;;4998425;28;20022;-82
2021/12/22 07:04:50;;;;;;;17.83;6.67;;;-4.20;99.90;;;;;;5006249;28;20026;-83
2021/12/22 07:07:15;;;;;;;11.83;6.67;;;-4.20;99.90;;;;;;5031307;28;20027;-83
2021/12/22 07:09:41;;;;;;;17.83;7.80;;;-4.20;99.90;;;;;;5017784;28;20025;-83
2021/12/22 07:12:09;;;;;;;19.00;7.37;;;-4.20;99.90;;;;;;5015051;28;20104;-83
2021/12/22 07:14:35;;;;;;;14.07;6.63;;;-4.20;99.90;;;;;;5000552;28;20021;-84
2021/12/22 07:17:01;;;;;;;16.93;6.40;;;-4.20;99.90;;;;;;5022466;28;20109;-83
2021/12/22 07:19:27;;;;;;;14.90;7.13;;;-4.30;99.90;;;;;;5017545;28;20050;-83
2021/12/22 07:21:53;;;;;;;16.33;6.40;;;-4.20;99.90;;;;;;5002526;28;20033;-83
2021/12/22 07:24:19;;;;;;;13.77;6.57;;;-4.30;99.90;;;;;;5009290;28;20406;-83
2021/12/22 07:26:44;;;;;;;15.23;6.37;;;-4.30;99.90;;;;;;5000083;28;20028;-82
2021/12/22 07:29:11;;;;;;;16.50;6.30;;;-4.30;99.90;;;;;;4997698;28;20018;-83
2021/12/22 07:31:36;;;;;;;16.77;6.77;;;-4.40;99.90;;;;;;5016037;28;20026;-82
2021/12/22 07:34:16;;;;;;;15.63;6.73;;;-4.30;99.90;;;;;;5016042;28;20033;-83
2021/12/22 07:36:49;;;;;;;15.20;6.63;;;-4.40;99.90;;;;;;5014414;28;20037;-82
2021/12/22 07:39:15;;;;;;;15.07;7.23;;;-4.40;99.90;;;;;;5015011;28;20021;-83
2021/12/22 07:41:40;;;;;;;16.50;6.57;;;-4.30;99.90;;;;;;5022240;28;20053;-83
2021/12/22 07:44:06;;;;;;;14.60;7.37;;;-4.30;99.90;;;;;;4997057;28;20745;-83
2021/12/22 07:46:32;;;;;;;15.90;6.27;;;-4.30;99.90;;;;;;4997061;28;20022;-82
2021/12/22 07:48:57;;;;;;;17.70;7.33;;;-4.20;99.90;;;;;;5013981;28;20026;-83
2021/12/22 07:51:23;;;;;;;15.87;6.67;;;-4.20;99.90;;;;;;5015233;28;20369;-82
2021/12/22 07:53:49;;;;;;;17.80;7.30;;;-4.10;99.90;;;;;;4999886;28;20021;-83
2021/12/22 07:56:15;;;;;;;19.70;7.70;;;-4.10;99.90;;;;;;4995025;28;20467;-83
2021/12/22 07:58:41;;;;;;;16.53;6.77;;;-4.00;99.90;;;;;;5013062;28;20018;-85
2021/12/22 08:01:06;;;;;;;17.47;7.07;;;-4.00;99.90;;;;;;4994110;28;20083;-85
2021/12/22 08:03:32;;;;;;;17.57;6.83;;;-4.00;99.90;;;;;;4995422;28;20029;-85
2021/12/22 08:05:58;;;;;;;14.83;7.03;;;-3.80;99.90;;;;;;4993063;28;20443;-84
2021/12/22 08:08:23;;;;;;;16.53;6.40;;;-3.90;99.90;;;;;;4986932;28;20458;-85
2021/12/22 08:10:49;;;;;;;14.73;6.37;;;-3.70;99.90;;;;;;5005303;28;20032;-85
2021/12/22 08:13:17;;;;;;;17.13;6.87;;;-3.80;99.90;;;;;;4984984;28;20038;-86
2021/12/22 08:15:44;;;;;;;17.33;7.37;;;-3.70;99.90;;;;;;5012481;28;20037;-86
2021/12/22 08:18:10;;;;;;;17.27;7.33;;;-3.70;99.90;;;;;;4983512;28;20073;-85
2021/12/22 08:20:36;;;;;;;19.47;8.13;;;-3.60;99.90;;;;;;4997718;28;20053;-85
2021/12/22 08:23:01;;;;;;;16.20;6.53;;;-3.50;99.90;;;;;;5000161;28;20120;-85
2021/12/22 08:25:27;;;;;;;17.37;7.03;;;-3.30;99.90;;;;;;5022725;28;20372;-85
2021/12/22 08:27:53;;;;;;;17.43;7.43;;;-3.30;99.90;;;;;;5001473;28;20053;-84
2021/12/22 08:30:18;;;;;;;15.37;7.03;;;-3.30;99.90;;;;;;5001675;28;20117;-84
2021/12/22 08:32:44;;;;;;;18.67;6.53;;;-3.30;99.90;;;;;;5022961;28;20160;-84
2021/12/22 08:35:13;;;;;;;18.07;7.30;;;-3.30;99.90;;;;;;4985995;28;20037;-84
2021/12/22 08:40:24;;;;;;;15.83;7.13;;;-3.20;99.90;;;;;;5012343;28;20041;-84
2021/12/22 08:42:52;;;;;;;16.63;7.03;;;-3.00;99.90;;;;;;4992793;28;20038;-84
2021/12/22 08:45:19;;;;;;;18.37;7.67;;;-2.80;99.90;;;;;;5010417;28;20022;-85
2021/12/22 08:47:46;;;;;;;15.93;7.60;;;-2.50;99.90;;;;;;5011690;28;20553;-85
2021/12/22 08:50:13;;;;;;;16.93;6.97;;;-2.10;99.90;;;;;;5007209;28;20027;-87
2021/12/22 08:52:39;;;;;;;16.30;6.70;;;-1.90;99.90;;;;;;5018090;28;20041;-86
2021/12/22 08:55:06;;;;;;;16.77;7.83;;;-1.90;99.90;;;;;;4993833;28;20057;-85
2021/12/22 08:57:31;;;;;;;18.40;7.57;;;-1.90;99.90;;;;;;4993723;28;20033;-85
2021/12/22 08:59:58;;;;;;;19.03;7.20;;;-2.00;99.90;;;;;;4984733;28;20049;-85
2021/12/22 09:02:25;;;;;;;15.83;6.50;;;-2.10;99.90;;;;;;5012407;28;20124;-85
2021/12/22 09:04:50;;;;;;;16.13;6.93;;;-2.10;99.90;;;;;;4994926;28;20095;-86
2021/12/22 09:07:16;;;;;;;17.13;8.07;;;-2.20;99.90;;;;;;4993572;28;20030;-86
2021/12/22 09:09:43;;;;;;;12.50;6.30;;;-2.20;99.90;;;;;;5014512;28;20021;-87
2021/12/22 09:12:09;;;;;;;23.63;7.43;;;-2.20;99.90;;;;;;5005255;28;20119;-87
2021/12/22 09:14:35;;;;;;;15.10;6.87;;;-2.30;99.90;;;;;;4997213;28;20147;-87
2021/12/22 09:17:02;;;;;;;15.03;7.17;;;-2.30;99.90;;;;;;5019509;28;20857;-87
2021/12/22 09:19:28;;;;;;;18.33;7.97;;;-2.30;99.90;;;;;;4998321;28;20026;-86
2021/12/22 09:21:53;;;;;;;21.00;7.93;;;-2.20;99.90;;;;;;5017160;28;20022;-86
2021/12/22 09:24:19;;;;;;;14.50;7.70;;;-2.20;99.90;;;;;;5015550;28;20556;-87
2021/12/22 09:26:45;;;;;;;16.47;6.47;;;-2.20;99.90;;;;;;4998905;28;20017;-87
2021/12/22 09:29:12;;;;;;;19.23;6.93;;;-2.20;99.90;;;;;;5011732;28;20029;-87
2021/12/22 09:31:38;;;;;;;21.87;7.23;;;-2.30;99.90;;;;;;5000164;28;20613;-87
2021/12/22 09:34:04;;;;;;;14.80;7.53;;;-2.30;99.90;;;;;;4994565;28;20034;-87
2021/12/22 09:36:30;;;;;;;17.77;7.47;;;-2.40;99.90;;;;;;4995043;28;20041;-87
2021/12/22 09:38:56;;;;;;;16.20;7.40;;;-2.40;99.90;;;;;;5009317;28;20466;-87
2021/12/22 09:41:22;;;;;;;17.83;6.93;;;-2.40;99.90;;;;;;5007873;28;20105;-86
2021/12/22 09:43:51;;;;;;;14.93;7.43;;;-2.30;99.90;;;;;;4995234;28;20030;-86
2021/12/22 09:46:20;;;;;;;18.83;8.33;;;-2.20;99.90;;;;;;5008686;28;20029;-87
2021/12/22 09:48:50;;;;;;;16.60;7.07;;;-2.20;99.90;;;;;;4990656;28;20041;-85
2021/12/22 09:53:51;;;;;;;16.87;6.93;;;-2.10;99.90;;;;;;5016762;28;20034;-85
2021/12/22 09:56:20;;;;;;;19.35;7.45;;;-2.10;99.90;;;;;;5016697;28;20030;-86
2021/12/22 09:58:48;;;;;;;16.87;7.33;;;-2.00;99.90;;;;;;4998209;28;20442;-86
2021/12/22 10:01:14;;;;;;;14.00;6.43;;;-1.90;99.90;;;;;;5015920;28;20104;-86
2021/12/22 10:03:40;;;;;;;17.60;7.43;;;-1.90;99.90;;;;;;5000189;28;20534;-86
2021/12/22 10:06:06;;;;;;;17.00;7.17;;;-1.80;99.90;;;;;;5012693;28;20030;-86
2021/12/22 10:08:34;;;;;;;20.73;7.00;;;-1.70;99.90;;;;;;4997508;28;20018;-86
2021/12/22 10:11:12;;;;;;;17.67;7.67;;;-1.70;99.90;;;;;;4996132;28;20029;-86
2021/12/22 10:13:43;;;;;;;17.03;6.90;;;-1.70;99.90;;;;;;5012823;28;20033;-86
2021/12/22 10:16:13;;;;;;;14.40;6.82;;;-1.60;99.90;;;;;;4995484;28;20022;-85
2021/12/22 10:18:39;;;;;;;15.97;6.63;;;-1.50;99.90;;;;;;5015639;28;20072;-85
2021/12/22 10:21:21;;;;;;;15.50;6.83;;;-1.40;99.90;;;;;;5010958;28;20031;-86
2021/12/22 10:23:54;;;;;;;16.92;6.88;;;-1.40;99.90;;;;;;4980720;28;20079;-86
2021/12/22 10:26:27;;;;;;;12.20;6.13;;;-1.40;99.90;;;;;;5016280;28;20036;-86
2021/12/22 10:28:54;;;;;;;;;;;-1.20;99.90;;;;;;4994919;28;20025;-87
2021/12/22 10:31:26;;;;;;;13.17;5.97;;;-1.20;99.90;;;;;;5012220;28;19999;-87
2021/12/22 10:33:52;;;;;;;18.23;5.55;;;-1.10;99.90;;;;;;4995057;28;20124;-86
2021/12/22 10:36:22;;;;;;;15.33;6.53;;;-1.10;99.90;;;;;;4986769;28;20109;-86
2021/12/22 10:38:51;;;;;;;16.63;7.57;;;-1.00;99.90;;;;;;5014227;28;20360;-86
2021/12/22 10:41:16;;;;;;;17.07;7.87;;;-1.00;99.90;;;;;;5002529;28;20109;-86
2021/12/22 10:43:46;;;;;;;16.17;6.73;;;-0.90;99.90;;;;;;5001717;28;20036;-86
2021/12/22 10:46:21;;;;;;;18.83;6.23;;;-0.80;99.90;;;;;;4988852;28;20033;-86
2021/12/22 10:51:36;;;;;;;18.63;6.07;;;-0.70;99.90;;;;;;5021900;28;20084;-85
2021/12/22 10:54:07;;;;;;;15.27;6.23;;;-0.70;99.90;;;;;;4998528;28;20037;-86
2021/12/22 10:56:41;;;;;;;10.27;5.03;;;-0.70;99.90;;;;;;4978006;28;20121;-86
2021/12/22 10:59:13;;;;;;;19.03;6.70;;;-0.60;99.90;;;;;;4981423;28;20276;-86
2021/12/22 11:02:07;;;;;;;17.83;6.72;;;-0.60;99.90;;;;;;4976144;28;20030;-86
2021/12/22 11:04:34;;;;;;;13.10;5.93;;;-0.50;99.90;;;;;;5001043;28;20033;-86
2021/12/22 11:07:27;;;;;;;15.23;6.70;;;-0.50;99.90;;;;;;5012328;28;20026;-86
2021/12/22 11:09:54;;;;;;;13.93;5.50;;;-0.50;99.90;;;;;;4993772;28;20052;-85
2021/12/22 11:12:37;;;;;;;13.60;5.93;;;-0.50;99.90;;;;;;4988390;28;20057;-86
2021/12/22 11:15:04;;;;;;;13.53;6.20;;;-0.50;99.90;;;;;;4983859;28;20021;-86
2021/12/22 11:17:29;;;;;;;14.13;6.10;;;-0.60;99.90;;;;;;4984943;28;20404;-85
2021/12/22 11:20:02;;;;;;;15.37;6.30;;;-0.50;99.90;;;;;;5001551;28;20030;-85
2021/12/22 11:25:21;;;;;;;15.93;6.87;;;-0.40;99.90;;;;;;5020713;28;20025;-85
2021/12/22 11:27:49;;;;;;;14.87;6.00;;;-0.30;99.90;;;;;;4994132;28;20388;-87
2021/12/22 11:30:15;;;;;;;14.80;6.50;;;-0.30;99.90;;;;;;5008834;28;20096;-86
2021/12/22 11:32:41;;;;;;;14.17;6.57;;;-0.30;99.90;;;;;;5005210;28;20160;-86
2021/12/22 11:35:10;;;;;;;13.30;5.83;;;-0.20;99.90;;;;;;5003541;28;20057;-86
2021/12/22 11:37:36;;;;;;;15.20;5.90;;;-0.20;99.90;;;;;;5020268;28;20032;-86
2021/12/22 11:40:04;;;;;;;13.53;5.70;;;-0.20;99.90;;;;;;5013429;28;20493;-86
2021/12/22 11:42:37;;;;;;;14.97;6.17;;;-0.20;99.90;;;;;;5004771;28;20033;-86
2021/12/22 11:45:25;;;;;;;21.70;7.80;;;-0.20;99.90;;;;;;4974666;28;20022;-87
2021/12/22 11:47:56;;;;;;;15.70;6.17;;;-0.20;99.90;;;;;;5002165;28;20426;-86
2021/12/22 11:50:28;;;;;;;14.43;6.10;;;-0.20;99.90;;;;;;5026609;28;20022;-86
2021/12/22 11:53:03;;;;;;;14.65;6.40;;;-0.10;99.90;;;;;;5030663;28;20570;-86
2021/12/22 11:55:50;;;;;;;12.60;5.93;;;-0.10;99.90;;;;;;4998305;28;20069;-87
2021/12/22 11:58:22;;;;;;;14.07;6.30;;;-0.10;99.90;;;;;;4991562;28;20680;-86
2021/12/22 12:00:50;;;;;;;15.23;6.90;;;0.00;99.90;;;;;;4991096;28;20026;-86
2021/12/22 12:03:30;;;;;;;16.33;6.23;;;-0.10;99.90;;;;;;4973640;28;20038;-86
2021/12/22 12:06:06;;;;;;;13.90;6.60;;;-0.10;99.90;;;;;;4991124;28;20022;-86
2021/12/22 12:08:44;;;;;;;14.27;6.03;;;0.00;99.90;;;;;;4998361;28;20026;-87
2021/12/22 12:11:13;;;;;;;13.10;6.10;;;0.10;99.90;;;;;;5010830;28;20476;-87
2021/12/22 12:13:51;;;;;;;13.70;5.60;;;0.10;99.90;;;;;;5009440;28;20036;-87
2021/12/22 12:22:27;;;;;;;15.90;6.18;;;0.10;99.90;;;;;;5003443;28;20089;-87
2021/12/22 12:25:05;;;;;;;15.40;6.37;;;0.10;99.90;;;;;;4973861;28;20031;-87
2021/12/22 12:27:46;;;;;;;14.80;6.00;;;0.20;99.90;;;;;;4973732;28;20445;-87
2021/12/22 12:30:23;;;;;;;13.97;6.27;;;0.20;99.90;;;;;;4974946;28;20457;-87
2021/12/22 12:32:49;;;;;;;16.60;5.90;;;0.30;99.90;;;;;;4990588;28;20479;-86
2021/12/22 12:35:17;;;;;;;14.60;6.47;;;0.30;99.90;;;;;;4973511;28;20065;-87
2021/12/22 12:38:16;;;;;;;13.67;6.57;;;0.40;99.90;;;;;;4973847;28;20428;-87
2021/12/22 12:41:11;;;;;;;14.77;6.20;;;0.40;99.90;;;;;;4985871;28;20066;-87
2021/12/22 12:43:51;;;;;;;20.83;7.03;;;0.40;99.90;;;;;;5010006;28;20080;-85
2021/12/22 12:46:20;;;;;;;13.77;6.73;;;0.50;99.90;;;;;;4996843;28;20111;-87
2021/12/22 12:48:52;;;;;;;14.80;6.53;;;0.50;99.90;;;;;;4997347;28;20029;-86
2021/12/22 12:51:18;;;;;;;18.47;6.33;;;0.50;99.90;;;;;;5000239;28;20035;-86
2021/12/22 12:53:47;;;;;;;16.20;6.47;;;0.50;99.90;;;;;;4977727;28;20096;-87
2021/12/22 12:56:13;;;;;;;15.83;6.83;;;0.50;99.90;;;;;;4994957;28;20392;-87
2021/12/22 12:59:03;;;;;;;15.30;5.63;;;0.50;99.90;;;;;;4995417;28;20068;-87
2021/12/22 13:01:47;;;;;;;14.97;6.57;;;0.50;99.90;;;;;;4994879;28;20030;-87
2021/12/22 13:04:33;;;;;;;11.93;5.80;;;0.60;99.90;;;;;;4994445;28;20101;-87
2021/12/22 13:07:06;;;;;;;17.50;6.47;;;0.60;99.90;;;;;;4979932;28;20396;-87
2021/12/22 13:09:37;;;;;;;12.47;5.77;;;0.60;99.90;;;;;;4977406;28;20081;-87
2021/12/22 13:12:14;;;;;;;17.40;6.93;;;0.70;99.90;;;;;;4977475;28;20129;-87
2021/12/22 13:17:39;;;;;;;14.63;5.67;;;0.70;99.90;;;;;;4995059;28;20415;-87
2021/12/22 13:20:07;;;;;;;14.37;6.57;;;0.80;99.90;;;;;;4994803;28;20347;-87
2021/12/22 13:22:35;;;;;;;13.67;5.87;;;0.80;99.90;;;;;;4976537;28;20054;-87
2021/12/22 13:25:08;;;;;;;16.77;7.77;;;0.90;99.90;;;;;;4994368;28;20027;-87
2021/12/22 13:27:34;;;;;;;17.13;7.03;;;0.90;99.90;;;;;;4977074;28;20080;-87
2021/12/22 13:30:18;;;;;;;18.77;7.07;;;0.90;99.90;;;;;;4994889;28;20696;-86
2021/12/22 13:33:03;;;;;;;14.10;6.37;;;1.00;99.90;;;;;;4990531;28;20049;-87
2021/12/22 13:35:43;;;;;;;17.67;7.43;;;1.00;99.90;;;;;;4992957;28;20026;-86
2021/12/22 13:38:30;;;;;;;15.03;6.70;;;1.10;99.90;;;;;;4976641;28;20400;-87
2021/12/22 13:40:58;;;;;;;12.87;6.50;;;1.10;99.90;;;;;;4994143;28;20484;-87
2021/12/22 13:43:31;;;;;;;16.43;6.80;;;1.00;99.90;;;;;;4983430;28;20029;-86
2021/12/22 13:46:12;;;;;;;14.48;7.03;;;1.00;99.90;;;;;;4996828;28;20018;-87
2021/12/22 13:48:40;;;;;;;14.57;6.43;;;1.00;99.90;;;;;;5008031;28;20037;-87
2021/12/22 13:51:09;;;;;;;15.73;6.50;;;1.00;99.90;;;;;;4982355;28;20387;-87
2021/12/22 13:53:38;;;;;;;16.70;6.63;;;1.00;99.90;;;;;;4974782;28;20129;-87
2021/12/22 13:56:04;;;;;;;16.40;6.83;;;1.10;99.90;;;;;;5010607;28;20038;-86